createdAt,value
2022-12-29T00:00:04.665Z,-0.87
2022-12-29T00:03:06.913Z,-0.93
2022-12-29T00:06:09.251Z,-0.99
2022-12-29T00:09:14.070Z,-0.97
2022-12-29T00:12:15.736Z,-0.86
2022-12-29T00:15:17.372Z,-0.75
2022-12-29T00:18:19.663Z,-0.73
2022-12-29T00:21:23.347Z,-0.76
2022-12-29T00:24:24.958Z,-0.85
2022-12-29T00:27:27.530Z,-0.95
2022-12-29T00:30:29.181Z,-1.02
2022-12-29T00:33:32.599Z,-1.08
2022-12-29T00:36:38.331Z,-1.13
2022-12-29T00:39:40.043Z,-1.16
2022-12-29T00:42:41.769Z,-1.19
2022-12-29T00:45:43.353Z,-1.23
2022-12-29T00:48:44.959Z,-1.28
2022-12-29T00:51:47.198Z,-1.34
2022-12-29T00:54:48.776Z,-1.39
2022-12-29T00:57:50.351Z,-1.42
2022-12-29T01:00:52.137Z,-1.47
2022-12-29T01:03:55.446Z,-1.51
2022-12-29T01:07:00.533Z,-1.48
2022-12-29T01:10:02.151Z,-1.42
2022-12-29T01:13:04.037Z,-1.42
2022-12-29T01:16:06.533Z,-1.42
2022-12-29T01:19:09.296Z,-1.44
2022-12-29T01:22:10.866Z,-1.43
2022-12-29T01:25:12.793Z,-1.44
2022-12-29T01:28:14.361Z,-1.46
2022-12-29T01:31:16.706Z,-1.49
2022-12-29T01:34:18.907Z,-1.51
2022-12-29T01:37:20.551Z,-1.54
2022-12-29T01:40:22.169Z,-1.58
2022-12-29T01:43:39.543Z,-1.63
2022-12-29T01:46:43.160Z,-1.66
2022-12-29T01:49:44.720Z,-1.66
2022-12-29T01:53:16.862Z,-1.59
2022-12-29T01:56:20.805Z,-1.50
2022-12-29T01:59:28.832Z,-1.43
2022-12-29T02:02:33.360Z,-1.38
2022-12-29T02:05:57.643Z,-1.37
2022-12-29T02:09:00.016Z,-1.41
2022-12-29T02:12:01.908Z,-1.43
2022-12-29T02:15:04.881Z,-1.42
2022-12-29T02:18:36.168Z,-1.45
2022-12-29T02:21:56.091Z,-1.46
2022-12-29T02:25:00.498Z,-1.45
2022-12-29T02:28:22.533Z,-1.43
2022-12-29T02:31:24.282Z,-1.40
2022-12-29T02:34:52.361Z,-1.37
2022-12-29T02:38:26.352Z,-1.29
2022-12-29T02:41:42.039Z,-1.16
2022-12-29T02:45:06.804Z,-0.97
2022-12-29T02:48:24.327Z,-0.81
2022-12-29T02:51:35.636Z,-0.74
2022-12-29T02:54:37.657Z,-0.69
2022-12-29T02:57:39.481Z,-0.65
2022-12-29T03:00:43.693Z,-0.64
2022-12-29T03:04:17.772Z,-0.62
2022-12-29T03:07:41.884Z,-0.61
2022-12-29T03:11:01.438Z,-0.59
2022-12-29T03:14:09.603Z,-0.56
2022-12-29T03:17:27.667Z,-0.57
2022-12-29T03:20:45.148Z,-0.58
2022-12-29T03:23:49.450Z,-0.59
2022-12-29T03:26:52.587Z,-0.58
2022-12-29T03:29:58.004Z,-0.60
2022-12-29T03:33:03.039Z,-0.64
2022-12-29T03:36:08.645Z,-0.65
2022-12-29T03:39:11.766Z,-0.63
2022-12-29T03:42:19.904Z,-0.62
2022-12-29T03:45:21.728Z,-0.61
2022-12-29T03:48:23.421Z,-0.60
2022-12-29T03:51:25.139Z,-0.61
2022-12-29T03:54:26.710Z,-0.62
2022-12-29T03:57:28.212Z,-0.61
2022-12-29T04:00:29.814Z,-0.60
2022-12-29T04:03:31.460Z,-0.58
2022-12-29T04:06:33.192Z,-0.56
2022-12-29T04:09:34.879Z,-0.47
2022-12-29T04:12:36.472Z,-0.36
2022-12-29T04:15:38.085Z,-0.28
2022-12-29T04:18:39.873Z,-0.22
2022-12-29T04:21:41.386Z,-0.21
2022-12-29T04:24:42.976Z,-0.24
2022-12-29T04:27:44.602Z,-0.23
2022-12-29T04:30:47.636Z,-0.22
2022-12-29T04:33:49.292Z,-0.13
2022-12-29T04:36:51.214Z,-0.04
2022-12-29T04:39:52.811Z,0.01
2022-12-29T04:42:54.581Z,-0.02
2022-12-29T04:45:56.395Z,-0.08
2022-12-29T04:48:58.152Z,-0.22
2022-12-29T04:51:59.644Z,-0.31
2022-12-29T04:55:01.590Z,-0.37
2022-12-29T04:58:03.259Z,-0.44
2022-12-29T05:01:04.942Z,-0.52
2022-12-29T05:04:06.623Z,-0.54
2022-12-29T05:07:08.884Z,-0.54
2022-12-29T05:10:11.086Z,-0.68
2022-12-29T05:13:12.846Z,-0.72
2022-12-29T05:16:14.431Z,-0.65
2022-12-29T05:19:16.413Z,-0.71
2022-12-29T05:22:18.212Z,-0.87
2022-12-29T05:25:20.245Z,-1.04
2022-12-29T05:28:21.932Z,-1.02
2022-12-29T05:31:23.706Z,-1.19
2022-12-29T05:34:25.280Z,-1.16
2022-12-29T05:37:26.942Z,-0.94
2022-12-29T05:40:28.642Z,-0.64
2022-12-29T05:43:30.376Z,-0.24
2022-12-29T05:46:32.318Z,0.07
2022-12-29T05:49:34.070Z,0.51
2022-12-29T05:52:35.687Z,1.03
2022-12-29T05:55:37.499Z,1.27
2022-12-29T05:58:39.088Z,1.47
2022-12-29T06:01:40.863Z,1.56
2022-12-29T06:04:42.648Z,1.59
2022-12-29T06:07:44.424Z,1.70
2022-12-29T06:10:45.997Z,1.71
2022-12-29T06:13:47.711Z,1.62
2022-12-29T06:16:49.313Z,1.36
2022-12-29T06:19:51.110Z,1.24
2022-12-29T06:22:52.757Z,1.23
2022-12-29T06:25:54.391Z,1.37
2022-12-29T06:28:56.157Z,1.69
2022-12-29T06:31:57.922Z,1.93
2022-12-29T06:34:59.464Z,2.33
2022-12-29T06:38:01.149Z,2.77
2022-12-29T06:41:02.769Z,3.03
2022-12-29T06:44:04.341Z,3.06
2022-12-29T06:47:05.915Z,3.08
2022-12-29T06:50:07.928Z,3.15
2022-12-29T06:53:09.684Z,3.28
2022-12-29T06:56:11.311Z,3.40
2022-12-29T06:59:13.045Z,3.49
2022-12-29T07:02:14.879Z,3.57
2022-12-29T07:05:16.767Z,3.68
2022-12-29T07:08:18.768Z,3.75
2022-12-29T07:11:20.708Z,3.79
2022-12-29T07:14:22.438Z,3.76
2022-12-29T07:17:23.995Z,3.72
2022-12-29T07:20:27.286Z,3.72
2022-12-29T07:23:29.342Z,3.75
2022-12-29T07:26:36.104Z,3.79
2022-12-29T07:29:38.747Z,3.85
2022-12-29T07:32:40.467Z,3.88
2022-12-29T07:35:42.025Z,3.89
2022-12-29T07:38:44.332Z,3.82
2022-12-29T07:41:46.033Z,3.59
2022-12-29T07:44:47.574Z,3.28
2022-12-29T07:47:50.374Z,3.06
2022-12-29T07:50:53.005Z,2.97
2022-12-29T07:53:54.571Z,2.96
2022-12-29T07:56:56.422Z,2.94
2022-12-29T07:59:58.016Z,2.96
2022-12-29T08:03:00.983Z,2.97
2022-12-29T08:06:04.328Z,2.98
2022-12-29T08:09:16.548Z,2.98
2022-12-29T08:12:21.536Z,3.02
2022-12-29T08:15:28.570Z,2.97
2022-12-29T08:18:34.022Z,2.79
2022-12-29T08:21:35.707Z,2.67
2022-12-29T08:24:37.451Z,2.85
2022-12-29T08:27:39.011Z,3.17
2022-12-29T08:30:40.829Z,3.33
2022-12-29T08:33:42.440Z,3.15
2022-12-29T08:36:43.979Z,3.14
2022-12-29T08:39:45.876Z,3.46
2022-12-29T08:42:47.533Z,4.04
2022-12-29T08:45:49.118Z,4.85
2022-12-29T08:48:50.724Z,5.60
2022-12-29T08:51:52.281Z,6.10
2022-12-29T08:54:54.072Z,6.14
2022-12-29T08:57:55.725Z,6.47
2022-12-29T09:00:58.044Z,7.02
2022-12-29T09:04:16.964Z,7.51
2022-12-29T09:07:19.272Z,7.95
2022-12-29T09:10:20.965Z,8.61
2022-12-29T09:13:22.725Z,9.19
2022-12-29T09:16:25.310Z,9.64
2022-12-29T09:19:27.085Z,10.11
2022-12-29T09:22:28.692Z,10.75
2022-12-29T09:25:30.493Z,11.39
2022-12-29T09:28:32.425Z,11.66
2022-12-29T09:31:33.994Z,11.69
2022-12-29T09:34:35.667Z,11.52
2022-12-29T09:37:37.303Z,11.59
2022-12-29T09:40:40.176Z,12.04
2022-12-29T09:44:10.207Z,12.40
2022-12-29T09:47:14.606Z,12.23
2022-12-29T09:50:25.553Z,12.12
2022-12-29T09:53:31.275Z,12.37
2022-12-29T09:56:33.516Z,12.82
2022-12-29T09:59:43.208Z,13.32
2022-12-29T10:02:51.128Z,14.04
2022-12-29T10:06:08.467Z,14.65
2022-12-29T10:09:29.299Z,15.44
2022-12-29T10:12:53.416Z,15.64
2022-12-29T10:16:03.020Z,15.28
2022-12-29T10:19:11.196Z,15.36
2022-12-29T10:22:38.737Z,16.16
2022-12-29T10:25:42.440Z,16.94
2022-12-29T10:28:48.737Z,17.43
2022-12-29T10:31:58.289Z,17.89
2022-12-29T10:35:06.515Z,18.38
2022-12-29T10:38:36.736Z,18.37
2022-12-29T10:41:52.377Z,18.32
2022-12-29T10:44:57.753Z,18.36
2022-12-29T10:48:03.543Z,18.46
2022-12-29T10:51:09.717Z,18.20
2022-12-29T10:54:35.582Z,17.97
2022-12-29T10:57:39.528Z,17.41
2022-12-29T11:00:54.957Z,16.90
2022-12-29T11:04:29.272Z,16.44
2022-12-29T11:07:32.101Z,15.98
2022-12-29T11:10:33.702Z,15.43
2022-12-29T11:13:59.926Z,15.54
2022-12-29T11:17:04.173Z,15.70
2022-12-29T11:20:36.591Z,14.85
2022-12-29T11:23:40.567Z,13.86
2022-12-29T11:26:44.968Z,13.28
2022-12-29T11:29:46.676Z,12.96
2022-12-29T11:32:53.166Z,12.65
2022-12-29T11:35:58.842Z,12.42
2022-12-29T11:39:00.865Z,12.19
2022-12-29T11:42:03.411Z,11.86
2022-12-29T11:45:11.061Z,11.64
2022-12-29T11:48:21.127Z,11.42
2022-12-29T11:51:29.321Z,11.22
2022-12-29T11:54:34.275Z,11.10
2022-12-29T11:57:36.424Z,11.03
2022-12-29T12:00:39.130Z,10.95
2022-12-29T12:03:48.275Z,10.93
2022-12-29T12:07:08.557Z,10.99
2022-12-29T12:10:20.799Z,11.07
2022-12-29T12:13:36.125Z,11.17
2022-12-29T12:16:43.118Z,11.31
2022-12-29T12:19:51.873Z,11.44
2022-12-29T12:23:11.759Z,11.51
2022-12-29T12:26:17.373Z,11.46
2022-12-29T12:29:26.702Z,11.39
2022-12-29T12:32:37.955Z,11.29
2022-12-29T12:35:42.431Z,11.16
2022-12-29T12:38:55.322Z,11.16
2022-12-29T12:42:06.224Z,11.24
2022-12-29T12:45:26.136Z,11.29
2022-12-29T12:48:46.547Z,11.31
2022-12-29T12:51:50.881Z,11.15
2022-12-29T12:55:16.929Z,10.93
2022-12-29T12:58:57.270Z,10.68
2022-12-29T13:02:33.975Z,10.56
2022-12-29T13:05:48.210Z,10.41
2022-12-29T13:09:01.706Z,10.27
2022-12-29T13:12:25.405Z,10.20
2022-12-29T13:15:42.924Z,10.21
2022-12-29T13:18:44.751Z,10.15
2022-12-29T13:22:10.811Z,10.07
2022-12-29T13:25:46.332Z,10.06
2022-12-29T13:29:05.407Z,9.98
2022-12-29T13:32:22.387Z,9.92
2022-12-29T13:35:36.036Z,9.90
2022-12-29T13:38:44.297Z,10.00
2022-12-29T13:41:54.393Z,10.09
2022-12-29T13:44:58.761Z,10.12
2022-12-29T13:48:10.805Z,10.07
2022-12-29T13:51:12.691Z,9.97
2022-12-29T13:54:51.803Z,9.87
2022-12-29T13:58:21.578Z,9.84
2022-12-29T14:02:05.629Z,9.85
2022-12-29T14:05:19.619Z,9.80
2022-12-29T14:08:21.121Z,9.68
2022-12-29T14:11:25.472Z,9.57
2022-12-29T14:14:30.270Z,9.45
2022-12-29T14:17:31.918Z,9.30
2022-12-29T14:20:34.169Z,9.19
2022-12-29T14:23:42.394Z,9.13
2022-12-29T14:26:44.153Z,9.11
2022-12-29T14:29:48.075Z,9.14
2022-12-29T14:33:03.984Z,9.11
2022-12-29T14:36:24.193Z,8.99
2022-12-29T14:39:37.827Z,8.87
2022-12-29T14:42:39.903Z,8.76
2022-12-29T14:45:42.837Z,8.70
2022-12-29T14:48:45.070Z,8.57
2022-12-29T14:51:47.856Z,8.48
2022-12-29T14:54:51.919Z,8.38
2022-12-29T14:57:59.539Z,8.34
2022-12-29T15:01:01.660Z,8.26
2022-12-29T15:04:19.715Z,8.24
2022-12-29T15:07:21.555Z,8.14
2022-12-29T15:10:24.182Z,7.98
2022-12-29T15:13:36.152Z,7.92
2022-12-29T15:16:38.009Z,7.91
2022-12-29T15:19:39.953Z,7.83
2022-12-29T15:22:45.451Z,7.69
2022-12-29T15:25:58.568Z,7.60
2022-12-29T15:29:00.163Z,7.54
2022-12-29T15:32:02.231Z,7.42
2022-12-29T15:35:24.909Z,7.30
2022-12-29T15:38:34.752Z,7.21
2022-12-29T15:41:47.549Z,7.14
2022-12-29T15:44:54.186Z,7.07
2022-12-29T15:47:59.613Z,6.89
2022-12-29T15:51:01.566Z,6.72
2022-12-29T15:54:03.673Z,6.61
2022-12-29T15:57:17.410Z,6.50
2022-12-29T16:00:36.309Z,6.42
2022-12-29T16:03:38.025Z,6.42
2022-12-29T16:06:45.946Z,6.44
2022-12-29T16:09:47.497Z,6.43
2022-12-29T16:12:49.075Z,6.39
2022-12-29T16:15:53.509Z,6.30
2022-12-29T16:18:58.069Z,6.29
2022-12-29T16:22:01.817Z,6.31
2022-12-29T16:25:29.315Z,6.29
2022-12-29T16:28:41.283Z,6.24
2022-12-29T16:31:52.159Z,6.24
2022-12-29T16:35:10.855Z,6.19
2022-12-29T16:38:22.500Z,6.15
2022-12-29T16:41:32.607Z,6.06
2022-12-29T16:44:34.268Z,6.01
2022-12-29T16:47:36.046Z,6.02
2022-12-29T16:50:40.020Z,5.95
2022-12-29T16:53:43.811Z,5.90
2022-12-29T16:56:46.038Z,5.89
2022-12-29T16:59:52.132Z,5.85
2022-12-29T17:02:57.063Z,5.86
2022-12-29T17:05:58.786Z,5.88
2022-12-29T17:09:00.427Z,5.87
2022-12-29T17:12:10.338Z,5.92
2022-12-29T17:15:22.709Z,5.91
2022-12-29T17:18:24.394Z,5.92
2022-12-29T17:21:25.917Z,5.97
2022-12-29T17:24:27.946Z,5.94
2022-12-29T17:27:52.641Z,5.89
2022-12-29T17:30:58.822Z,5.81
2022-12-29T17:34:00.450Z,5.78
2022-12-29T17:37:02.090Z,5.64
2022-12-29T17:40:05.863Z,5.41
2022-12-29T17:43:10.316Z,5.31
2022-12-29T17:46:11.984Z,5.36
2022-12-29T17:49:16.496Z,5.51
2022-12-29T17:52:18.477Z,5.66
2022-12-29T17:55:22.334Z,5.72
2022-12-29T17:58:29.137Z,5.80
2022-12-29T18:01:35.599Z,5.91
2022-12-29T18:04:38.990Z,5.90
2022-12-29T18:07:40.515Z,5.84
2022-12-29T18:10:42.221Z,5.84
2022-12-29T18:13:46.685Z,5.80
2022-12-29T18:16:48.734Z,5.76
2022-12-29T18:19:50.373Z,5.66
2022-12-29T18:22:51.932Z,5.53
2022-12-29T18:25:54.445Z,5.53
2022-12-29T18:28:57.225Z,5.57
2022-12-29T18:31:58.876Z,5.58
2022-12-29T18:35:00.402Z,5.55
2022-12-29T18:38:02.095Z,5.47
2022-12-29T18:41:03.823Z,5.40
2022-12-29T18:44:05.409Z,5.36
2022-12-29T18:47:07.083Z,5.29
2022-12-29T18:50:09.078Z,5.23
2022-12-29T18:53:17.909Z,5.31
2022-12-29T18:56:20.055Z,5.41
2022-12-29T18:59:21.680Z,5.38
2022-12-29T19:02:23.525Z,5.25
2022-12-29T19:05:30.978Z,5.16
2022-12-29T19:08:32.512Z,5.10
2022-12-29T19:11:34.173Z,5.12
2022-12-29T19:14:35.652Z,5.09
2022-12-29T19:17:37.273Z,5.12
2022-12-29T19:20:39.836Z,5.22
2022-12-29T19:23:41.463Z,5.26
2022-12-29T19:26:43.494Z,5.26
2022-12-29T19:29:45.097Z,5.07
2022-12-29T19:32:51.755Z,4.90
2022-12-29T19:35:59.243Z,4.84
2022-12-29T19:39:00.964Z,4.63
2022-12-29T19:42:05.521Z,4.46
2022-12-29T19:45:08.352Z,4.36
2022-12-29T19:48:15.633Z,4.30
2022-12-29T19:51:17.705Z,4.14
2022-12-29T19:54:19.281Z,4.00
2022-12-29T19:57:21.900Z,3.92
2022-12-29T20:00:25.143Z,3.90
2022-12-29T20:03:26.806Z,3.91
2022-12-29T20:06:28.469Z,3.84
2022-12-29T20:09:30.076Z,3.80
2022-12-29T20:12:31.745Z,3.80
2022-12-29T20:15:33.632Z,3.81
2022-12-29T20:18:35.868Z,3.82
2022-12-29T20:21:37.543Z,3.84
2022-12-29T20:24:41.650Z,3.90
2022-12-29T20:27:46.958Z,4.03
2022-12-29T20:31:43.998Z,4.14
2022-12-29T20:34:46.754Z,4.21
2022-12-29T20:37:48.448Z,4.24
2022-12-29T20:40:49.995Z,4.25
2022-12-29T20:43:51.995Z,4.31
2022-12-29T20:46:53.815Z,4.30
2022-12-29T20:49:55.485Z,4.25
2022-12-29T20:52:57.081Z,4.08
2022-12-29T20:56:02.470Z,4.05
2022-12-29T21:02:26.393Z,3.75
2022-12-29T21:05:29.271Z,3.44
2022-12-29T21:08:30.945Z,3.22
2022-12-29T21:11:32.573Z,3.05
2022-12-29T21:14:34.209Z,2.83
2022-12-29T21:17:36.521Z,2.43
2022-12-29T21:20:38.073Z,2.24
2022-12-29T21:23:39.652Z,2.04
2022-12-29T21:26:41.226Z,2.01
2022-12-29T21:29:42.822Z,1.97
2022-12-29T21:32:44.544Z,1.80
2022-12-29T21:35:46.680Z,1.70
2022-12-29T21:38:48.269Z,1.66
2022-12-29T21:41:49.893Z,1.61
2022-12-29T21:44:51.546Z,1.47
2022-12-29T21:47:53.951Z,1.33
2022-12-29T21:50:58.471Z,1.33
2022-12-29T21:54:01.624Z,1.25
2022-12-29T21:57:04.331Z,1.00
2022-12-29T22:00:08.039Z,0.80
2022-12-29T22:03:18.325Z,0.62
2022-12-29T22:06:23.963Z,0.47
2022-12-29T22:09:25.704Z,0.28
2022-12-29T22:12:27.237Z,0.17
2022-12-29T22:15:33.139Z,0.15
2022-12-29T22:18:34.878Z,0.12
2022-12-29T22:21:36.404Z,0.10
2022-12-29T22:24:38.114Z,0.10
2022-12-29T22:27:40.330Z,0.06
2022-12-29T22:30:42.030Z,-0.03
2022-12-29T22:33:45.137Z,-0.15
2022-12-29T22:36:46.879Z,-0.28
2022-12-29T22:39:48.474Z,-0.33
2022-12-29T22:42:50.066Z,-0.31
2022-12-29T22:45:51.671Z,-0.19
2022-12-29T22:48:53.383Z,-0.05
2022-12-29T22:51:54.968Z,0.02
2022-12-29T22:55:00.310Z,0.05
2022-12-29T22:58:04.987Z,0.04
2022-12-29T23:01:06.663Z,0.00
2022-12-29T23:04:55.779Z,-0.01
2022-12-29T23:07:30.323Z,-0.05
2022-12-29T23:10:31.944Z,-0.11
2022-12-29T23:13:34.484Z,-0.14
2022-12-29T23:16:36.099Z,-0.16
2022-12-29T23:19:37.821Z,-0.19
2022-12-29T23:22:39.415Z,-0.19
2022-12-29T23:25:41.108Z,-0.22
2022-12-29T23:28:42.762Z,-0.22
2022-12-29T23:31:45.832Z,-0.20
2022-12-29T23:34:47.482Z,-0.22
2022-12-29T23:37:49.022Z,-0.25
2022-12-29T23:40:50.619Z,-0.24
2022-12-29T23:43:52.290Z,-0.24
2022-12-29T23:46:54.059Z,-0.24
2022-12-29T23:49:55.768Z,-0.20
2022-12-29T23:52:57.329Z,-0.18
2022-12-29T23:55:58.937Z,-0.15
2022-12-29T23:59:03.786Z,-0.14
